sensor_id;sensor_type;location;lat;lon;timestamp;temperature;humidity
21197;DHT22;10756;51.014;3.786;2022-07-30T00:01:23;16.40;99.90
21197;DHT22;10756;51.014;3.786;2022-07-30T00:03:48;16.30;99.90
21197;DHT22;10756;51.014;3.786;2022-07-30T00:06:14;16.30;99.90
21197;DHT22;10756;51.014;3.786;2022-07-30T00:08:40;16.30;99.90
21197;DHT22;10756;51.014;3.786;2022-07-30T00:11:05;16.30;99.90
21197;DHT22;10756;51.014;3.786;2022-07-30T00:13:31;16.30;99.90
21197;DHT22;10756;51.014;3.786;2022-07-30T00:15:56;16.20;99.90
21197;DHT22;10756;51.014;3.786;2022-07-30T00:18:22;16.20;99.90
21197;DHT22;10756;51.014;3.786;2022-07-30T00:20:48;16.10;99.90
21197;DHT22;10756;51.014;3.786;2022-07-30T00:23:13;16.00;99.90
21197;DHT22;10756;51.014;3.786;2022-07-30T00:25:39;16.50;99.90
21197;DHT22;10756;51.014;3.786;2022-07-30T00:28:05;16.70;99.90
21197;DHT22;10756;51.014;3.786;2022-07-30T00:30:30;17.00;99.90
21197;DHT22;10756;51.014;3.786;2022-07-30T00:32:56;16.90;99.90
21197;DHT22;10756;51.014;3.786;2022-07-30T00:35:22;16.70;99.90
21197;DHT22;10756;51.014;3.786;2022-07-30T00:37:47;16.50;99.90
21197;DHT22;10756;51.014;3.786;2022-07-30T00:40:13;16.20;99.90
21197;DHT22;10756;51.014;3.786;2022-07-30T00:42:44;16.10;99.90
21197;DHT22;10756;51.014;3.786;2022-07-30T00:45:11;16.00;99.90
21197;DHT22;10756;51.014;3.786;2022-07-30T00:47:37;15.90;99.90
21197;DHT22;10756;51.014;3.786;2022-07-30T00:50:05;15.80;99.90
21197;DHT22;10756;51.014;3.786;2022-07-30T00:52:32;15.80;99.90
21197;DHT22;10756;51.014;3.786;2022-07-30T00:54:58;15.70;99.90
21197;DHT22;10756;51.014;3.786;2022-07-30T00:57:27;15.70;99.90
21197;DHT22;10756;51.014;3.786;2022-07-30T00:59:53;15.80;99.90
21197;DHT22;10756;51.014;3.786;2022-07-30T01:02:19;15.80;99.90
21197;DHT22;10756;51.014;3.786;2022-07-30T01:04:45;15.70;99.90
21197;DHT22;10756;51.014;3.786;2022-07-30T01:07:11;15.70;99.90
21197;DHT22;10756;51.014;3.786;2022-07-30T01:09:38;15.70;99.90
21197;DHT22;10756;51.014;3.786;2022-07-30T01:12:04;15.80;99.90
21197;DHT22;10756;51.014;3.786;2022-07-30T01:14:34;15.90;99.90
21197;DHT22;10756;51.014;3.786;2022-07-30T01:17:01;15.70;99.90
21197;DHT22;10756;51.014;3.786;2022-07-30T01:19:30;15.50;99.90
21197;DHT22;10756;51.014;3.786;2022-07-30T01:22:15;15.50;99.90
21197;DHT22;10756;51.014;3.786;2022-07-30T01:27:19;15.40;99.90
21197;DHT22;10756;51.014;3.786;2022-07-30T01:29:47;15.60;99.90
21197;DHT22;10756;51.014;3.786;2022-07-30T01:32:13;15.60;99.90
21197;DHT22;10756;51.014;3.786;2022-07-30T01:34:41;15.70;99.90
21197;DHT22;10756;51.014;3.786;2022-07-30T01:37:08;15.80;99.90
21197;DHT22;10756;51.014;3.786;2022-07-30T01:39:35;15.90;99.90
21197;DHT22;10756;51.014;3.786;2022-07-30T01:42:01;15.70;99.90
21197;DHT22;10756;51.014;3.786;2022-07-30T01:44:30;15.80;99.90
21197;DHT22;10756;51.014;3.786;2022-07-30T01:46:56;15.70;99.90
21197;DHT22;10756;51.014;3.786;2022-07-30T01:49:23;15.80;99.90
21197;DHT22;10756;51.014;3.786;2022-07-30T01:51:50;15.70;99.90
21197;DHT22;10756;51.014;3.786;2022-07-30T01:54:17;15.80;99.90
21197;DHT22;10756;51.014;3.786;2022-07-30T01:56:45;16.20;99.90
21197;DHT22;10756;51.014;3.786;2022-07-30T01:59:13;16.30;99.90
21197;DHT22;10756;51.014;3.786;2022-07-30T02:01:40;16.10;99.90
21197;DHT22;10756;51.014;3.786;2022-07-30T02:04:06;15.80;99.90
21197;DHT22;10756;51.014;3.786;2022-07-30T02:06:38;15.60;99.90
21197;DHT22;10756;51.014;3.786;2022-07-30T02:09:05;15.50;99.90
21197;DHT22;10756;51.014;3.786;2022-07-30T02:11:36;15.50;99.90
21197;DHT22;10756;51.014;3.786;2022-07-30T02:14:20;15.50;99.90
21197;DHT22;10756;51.014;3.786;2022-07-30T02:16:50;15.40;99.90
21197;DHT22;10756;51.014;3.786;2022-07-30T02:19:18;15.40;99.90
21197;DHT22;10756;51.014;3.786;2022-07-30T02:21:53;15.40;99.90
21197;DHT22;10756;51.014;3.786;2022-07-30T02:24:25;15.30;99.90
21197;DHT22;10756;51.014;3.786;2022-07-30T02:26:55;15.60;99.90
21197;DHT22;10756;51.014;3.786;2022-07-30T02:32:00;15.80;99.90
21197;DHT22;10756;51.014;3.786;2022-07-30T02:34:28;15.80;99.90
21197;DHT22;10756;51.014;3.786;2022-07-30T02:36:57;15.80;99.90
21197;DHT22;10756;51.014;3.786;2022-07-30T02:39:24;15.70;99.90
21197;DHT22;10756;51.014;3.786;2022-07-30T02:41:52;15.70;99.90
21197;DHT22;10756;51.014;3.786;2022-07-30T02:44:19;15.60;99.90
21197;DHT22;10756;51.014;3.786;2022-07-30T02:46:46;15.60;99.90
21197;DHT22;10756;51.014;3.786;2022-07-30T02:49:13;15.40;99.90
21197;DHT22;10756;51.014;3.786;2022-07-30T02:51:41;15.30;99.90
21197;DHT22;10756;51.014;3.786;2022-07-30T02:54:08;15.50;99.90
21197;DHT22;10756;51.014;3.786;2022-07-30T02:56:34;15.40;99.90
21197;DHT22;10756;51.014;3.786;2022-07-30T02:59:02;15.10;99.90
21197;DHT22;10756;51.014;3.786;2022-07-30T03:01:30;15.00;99.90
21197;DHT22;10756;51.014;3.786;2022-07-30T03:03:57;14.80;99.90
21197;DHT22;10756;51.014;3.786;2022-07-30T03:06:27;14.80;99.90
21197;DHT22;10756;51.014;3.786;2022-07-30T03:08:53;15.00;99.90
21197;DHT22;10756;51.014;3.786;2022-07-30T03:11:20;14.90;99.90
21197;DHT22;10756;51.014;3.786;2022-07-30T03:13:46;14.70;99.90
21197;DHT22;10756;51.014;3.786;2022-07-30T03:16:13;14.70;99.90
21197;DHT22;10756;51.014;3.786;2022-07-30T03:18:41;14.70;99.90
21197;DHT22;10756;51.014;3.786;2022-07-30T03:21:09;14.70;99.90
21197;DHT22;10756;51.014;3.786;2022-07-30T03:23:37;14.80;99.90
21197;DHT22;10756;51.014;3.786;2022-07-30T03:26:05;14.80;99.90
21197;DHT22;10756;51.014;3.786;2022-07-30T03:28:36;14.90;99.90
21197;DHT22;10756;51.014;3.786;2022-07-30T03:31:03;15.10;99.90
21197;DHT22;10756;51.014;3.786;2022-07-30T03:33:30;15.40;99.90
21197;DHT22;10756;51.014;3.786;2022-07-30T03:35:57;15.50;99.90
21197;DHT22;10756;51.014;3.786;2022-07-30T03:38:23;15.60;99.90
21197;DHT22;10756;51.014;3.786;2022-07-30T03:40:50;15.30;99.90
21197;DHT22;10756;51.014;3.786;2022-07-30T03:43:17;15.00;99.90
21197;DHT22;10756;51.014;3.786;2022-07-30T03:45:43;15.00;99.90
21197;DHT22;10756;51.014;3.786;2022-07-30T03:48:10;14.90;99.90
21197;DHT22;10756;51.014;3.786;2022-07-30T03:50:39;15.00;99.90
21197;DHT22;10756;51.014;3.786;2022-07-30T03:53:07;15.00;99.90
21197;DHT22;10756;51.014;3.786;2022-07-30T03:55:33;15.00;99.90
21197;DHT22;10756;51.014;3.786;2022-07-30T03:58:00;14.90;99.90
21197;DHT22;10756;51.014;3.786;2022-07-30T04:00:26;14.80;99.90
21197;DHT22;10756;51.014;3.786;2022-07-30T04:02:52;15.30;99.90
21197;DHT22;10756;51.014;3.786;2022-07-30T04:05:18;15.40;99.90
21197;DHT22;10756;51.014;3.786;2022-07-30T04:07:44;15.70;99.90
21197;DHT22;10756;51.014;3.786;2022-07-30T04:10:10;15.80;99.90
21197;DHT22;10756;51.014;3.786;2022-07-30T04:12:36;15.60;99.90
21197;DHT22;10756;51.014;3.786;2022-07-30T04:15:02;15.20;99.90
21197;DHT22;10756;51.014;3.786;2022-07-30T04:18:05;15.10;99.90
21197;DHT22;10756;51.014;3.786;2022-07-30T04:20:28;14.90;99.90
21197;DHT22;10756;51.014;3.786;2022-07-30T04:22:56;14.70;99.90
21197;DHT22;10756;51.014;3.786;2022-07-30T04:25:22;14.60;99.90
21197;DHT22;10756;51.014;3.786;2022-07-30T04:27:48;14.50;99.90
21197;DHT22;10756;51.014;3.786;2022-07-30T04:30:14;14.50;99.90
21197;DHT22;10756;51.014;3.786;2022-07-30T04:32:40;14.50;99.90
21197;DHT22;10756;51.014;3.786;2022-07-30T04:35:07;14.30;99.90
21197;DHT22;10756;51.014;3.786;2022-07-30T04:37:33;14.60;99.90
21197;DHT22;10756;51.014;3.786;2022-07-30T04:39:59;14.60;99.90
21197;DHT22;10756;51.014;3.786;2022-07-30T04:42:26;14.70;99.90
21197;DHT22;10756;51.014;3.786;2022-07-30T04:44:53;15.00;99.90
21197;DHT22;10756;51.014;3.786;2022-07-30T04:47:19;15.00;99.90
21197;DHT22;10756;51.014;3.786;2022-07-30T04:49:45;15.00;99.90
21197;DHT22;10756;51.014;3.786;2022-07-30T04:52:12;15.20;99.90
21197;DHT22;10756;51.014;3.786;2022-07-30T04:54:44;15.50;99.90
21197;DHT22;10756;51.014;3.786;2022-07-30T04:57:12;15.70;99.90
21197;DHT22;10756;51.014;3.786;2022-07-30T04:59:39;15.80;99.90
21197;DHT22;10756;51.014;3.786;2022-07-30T05:02:05;15.80;99.90
21197;DHT22;10756;51.014;3.786;2022-07-30T05:04:33;15.70;99.90
21197;DHT22;10756;51.014;3.786;2022-07-30T05:07:01;15.50;99.90
21197;DHT22;10756;51.014;3.786;2022-07-30T05:09:28;15.40;99.90
21197;DHT22;10756;51.014;3.786;2022-07-30T05:11:55;15.50;99.90
21197;DHT22;10756;51.014;3.786;2022-07-30T05:14:22;15.70;99.90
21197;DHT22;10756;51.014;3.786;2022-07-30T05:16:48;16.00;99.90
21197;DHT22;10756;51.014;3.786;2022-07-30T05:19:14;16.30;99.90
21197;DHT22;10756;51.014;3.786;2022-07-30T05:21:39;16.60;99.90
21197;DHT22;10756;51.014;3.786;2022-07-30T05:24:05;16.90;99.90
21197;DHT22;10756;51.014;3.786;2022-07-30T05:26:31;16.80;99.90
21197;DHT22;10756;51.014;3.786;2022-07-30T05:28:57;16.60;99.90
21197;DHT22;10756;51.014;3.786;2022-07-30T05:31:23;16.50;99.90
21197;DHT22;10756;51.014;3.786;2022-07-30T05:33:49;16.40;99.90
21197;DHT22;10756;51.014;3.786;2022-07-30T05:36:14;16.60;99.90
21197;DHT22;10756;51.014;3.786;2022-07-30T05:38:40;16.90;99.90
21197;DHT22;10756;51.014;3.786;2022-07-30T05:41:06;16.90;99.90
21197;DHT22;10756;51.014;3.786;2022-07-30T05:43:31;17.00;99.90
21197;DHT22;10756;51.014;3.786;2022-07-30T05:45:57;17.10;99.90
21197;DHT22;10756;51.014;3.786;2022-07-30T05:48:23;17.20;99.90
21197;DHT22;10756;51.014;3.786;2022-07-30T05:50:48;17.10;99.90
21197;DHT22;10756;51.014;3.786;2022-07-30T05:53:14;17.30;99.90
21197;DHT22;10756;51.014;3.786;2022-07-30T05:55:40;17.10;99.90
21197;DHT22;10756;51.014;3.786;2022-07-30T05:58:05;16.70;99.90
21197;DHT22;10756;51.014;3.786;2022-07-30T06:00:31;16.60;99.90
21197;DHT22;10756;51.014;3.786;2022-07-30T06:02:58;17.00;99.90
21197;DHT22;10756;51.014;3.786;2022-07-30T06:05:23;17.10;99.90
21197;DHT22;10756;51.014;3.786;2022-07-30T06:07:49;17.50;99.90
21197;DHT22;10756;51.014;3.786;2022-07-30T06:10:15;17.60;99.90
21197;DHT22;10756;51.014;3.786;2022-07-30T06:12:40;17.50;99.90
21197;DHT22;10756;51.014;3.786;2022-07-30T06:15:08;17.30;99.90
21197;DHT22;10756;51.014;3.786;2022-07-30T06:17:43;17.10;99.90
21197;DHT22;10756;51.014;3.786;2022-07-30T06:20:14;17.10;99.90
21197;DHT22;10756;51.014;3.786;2022-07-30T06:22:40;17.10;99.90
21197;DHT22;10756;51.014;3.786;2022-07-30T06:25:07;17.30;99.90
21197;DHT22;10756;51.014;3.786;2022-07-30T06:27:33;17.20;99.90
21197;DHT22;10756;51.014;3.786;2022-07-30T06:30:01;17.40;99.90
21197;DHT22;10756;51.014;3.786;2022-07-30T06:32:26;17.60;99.90
21197;DHT22;10756;51.014;3.786;2022-07-30T06:34:52;17.50;99.90
21197;DHT22;10756;51.014;3.786;2022-07-30T06:37:18;17.70;99.90
21197;DHT22;10756;51.014;3.786;2022-07-30T06:39:43;17.80;99.90
21197;DHT22;10756;51.014;3.786;2022-07-30T06:42:09;17.80;99.90
21197;DHT22;10756;51.014;3.786;2022-07-30T06:44:34;17.80;99.90
21197;DHT22;10756;51.014;3.786;2022-07-30T06:47:00;17.90;99.90
21197;DHT22;10756;51.014;3.786;2022-07-30T06:49:25;18.00;99.90
21197;DHT22;10756;51.014;3.786;2022-07-30T06:51:51;18.20;99.90
21197;DHT22;10756;51.014;3.786;2022-07-30T06:54:17;18.30;99.90
21197;DHT22;10756;51.014;3.786;2022-07-30T06:56:43;18.30;99.90
21197;DHT22;10756;51.014;3.786;2022-07-30T06:59:08;18.70;99.90
21197;DHT22;10756;51.014;3.786;2022-07-30T07:01:34;19.20;99.90
21197;DHT22;10756;51.014;3.786;2022-07-30T07:04:00;19.40;99.90
21197;DHT22;10756;51.014;3.786;2022-07-30T07:06:25;19.50;99.90
21197;DHT22;10756;51.014;3.786;2022-07-30T07:08:51;19.70;99.90
21197;DHT22;10756;51.014;3.786;2022-07-30T07:11:17;19.40;99.90
21197;DHT22;10756;51.014;3.786;2022-07-30T07:13:42;19.30;99.90
21197;DHT22;10756;51.014;3.786;2022-07-30T07:16:08;19.30;99.90
21197;DHT22;10756;51.014;3.786;2022-07-30T07:18:33;19.50;99.90
21197;DHT22;10756;51.014;3.786;2022-07-30T07:20:59;19.80;99.90
21197;DHT22;10756;51.014;3.786;2022-07-30T07:23:25;20.10;99.90
21197;DHT22;10756;51.014;3.786;2022-07-30T07:25:50;20.30;99.90
21197;DHT22;10756;51.014;3.786;2022-07-30T07:28:16;20.80;99.90
21197;DHT22;10756;51.014;3.786;2022-07-30T07:30:41;20.90;99.90
21197;DHT22;10756;51.014;3.786;2022-07-30T07:33:08;21.00;99.90
21197;DHT22;10756;51.014;3.786;2022-07-30T07:35:34;21.10;99.90
21197;DHT22;10756;51.014;3.786;2022-07-30T07:38:00;21.50;99.90
21197;DHT22;10756;51.014;3.786;2022-07-30T07:40:26;21.50;99.90
21197;DHT22;10756;51.014;3.786;2022-07-30T07:42:52;21.20;99.90
21197;DHT22;10756;51.014;3.786;2022-07-30T07:45:18;21.40;99.90
21197;DHT22;10756;51.014;3.786;2022-07-30T07:47:45;21.60;99.90
21197;DHT22;10756;51.014;3.786;2022-07-30T07:50:14;22.00;99.90
21197;DHT22;10756;51.014;3.786;2022-07-30T07:52:39;22.20;99.90
21197;DHT22;10756;51.014;3.786;2022-07-30T07:55:05;22.40;99.90
21197;DHT22;10756;51.014;3.786;2022-07-30T07:57:40;22.50;99.90
21197;DHT22;10756;51.014;3.786;2022-07-30T08:00:08;22.50;99.90
21197;DHT22;10756;51.014;3.786;2022-07-30T08:02:34;22.50;99.90
21197;DHT22;10756;51.014;3.786;2022-07-30T08:05:00;22.60;99.90
21197;DHT22;10756;51.014;3.786;2022-07-30T08:07:26;22.70;99.90
21197;DHT22;10756;51.014;3.786;2022-07-30T08:09:52;22.90;99.90
21197;DHT22;10756;51.014;3.786;2022-07-30T08:12:17;22.80;99.90
21197;DHT22;10756;51.014;3.786;2022-07-30T08:14:43;22.80;99.90
21197;DHT22;10756;51.014;3.786;2022-07-30T08:17:09;22.30;99.90
21197;DHT22;10756;51.014;3.786;2022-07-30T08:19:37;22.30;99.90
21197;DHT22;10756;51.014;3.786;2022-07-30T08:22:03;22.50;99.90
21197;DHT22;10756;51.014;3.786;2022-07-30T08:24:29;22.60;99.90
21197;DHT22;10756;51.014;3.786;2022-07-30T08:26:55;22.70;99.90
21197;DHT22;10756;51.014;3.786;2022-07-30T08:29:21;23.00;99.90
21197;DHT22;10756;51.014;3.786;2022-07-30T08:31:47;23.10;99.90
21197;DHT22;10756;51.014;3.786;2022-07-30T08:34:13;23.20;99.90
21197;DHT22;10756;51.014;3.786;2022-07-30T08:36:38;23.40;99.90
21197;DHT22;10756;51.014;3.786;2022-07-30T08:39:04;23.90;99.90
21197;DHT22;10756;51.014;3.786;2022-07-30T08:41:30;23.60;99.90
21197;DHT22;10756;51.014;3.786;2022-07-30T08:43:59;23.50;99.90
21197;DHT22;10756;51.014;3.786;2022-07-30T08:46:29;23.80;99.90
21197;DHT22;10756;51.014;3.786;2022-07-30T08:48:55;23.90;99.90
21197;DHT22;10756;51.014;3.786;2022-07-30T08:51:22;24.30;99.90
21197;DHT22;10756;51.014;3.786;2022-07-30T08:53:48;24.30;99.90
21197;DHT22;10756;51.014;3.786;2022-07-30T08:56:14;24.70;99.90
21197;DHT22;10756;51.014;3.786;2022-07-30T08:58:40;24.90;99.90
21197;DHT22;10756;51.014;3.786;2022-07-30T09:01:09;25.10;99.90
21197;DHT22;10756;51.014;3.786;2022-07-30T09:03:37;25.50;99.90
21197;DHT22;10756;51.014;3.786;2022-07-30T09:06:04;26.00;99.90
21197;DHT22;10756;51.014;3.786;2022-07-30T09:08:30;26.10;99.90
21197;DHT22;10756;51.014;3.786;2022-07-30T09:10:56;26.00;99.90
21197;DHT22;10756;51.014;3.786;2022-07-30T09:15:52;26.40;99.90
21197;DHT22;10756;51.014;3.786;2022-07-30T09:20:55;26.20;99.90
21197;DHT22;10756;51.014;3.786;2022-07-30T09:23:21;25.70;99.90
21197;DHT22;10756;51.014;3.786;2022-07-30T09:25:47;25.20;99.90
21197;DHT22;10756;51.014;3.786;2022-07-30T09:28:14;24.90;99.90
21197;DHT22;10756;51.014;3.786;2022-07-30T09:30:50;25.00;99.90
21197;DHT22;10756;51.014;3.786;2022-07-30T09:33:42;25.30;99.90
21197;DHT22;10756;51.014;3.786;2022-07-30T09:36:11;25.70;99.90
21197;DHT22;10756;51.014;3.786;2022-07-30T09:38:42;25.70;99.90
21197;DHT22;10756;51.014;3.786;2022-07-30T09:41:07;26.10;99.90
21197;DHT22;10756;51.014;3.786;2022-07-30T09:43:49;26.40;99.90
21197;DHT22;10756;51.014;3.786;2022-07-30T09:46:15;26.00;99.90
21197;DHT22;10756;51.014;3.786;2022-07-30T09:48:42;26.50;99.90
21197;DHT22;10756;51.014;3.786;2022-07-30T09:51:07;26.80;99.90
21197;DHT22;10756;51.014;3.786;2022-07-30T09:53:34;27.00;99.90
21197;DHT22;10756;51.014;3.786;2022-07-30T09:56:00;26.60;99.90
21197;DHT22;10756;51.014;3.786;2022-07-30T09:58:38;26.10;99.90
21197;DHT22;10756;51.014;3.786;2022-07-30T10:01:04;26.30;99.90
21197;DHT22;10756;51.014;3.786;2022-07-30T10:03:30;26.20;99.90
21197;DHT22;10756;51.014;3.786;2022-07-30T10:06:00;26.20;99.90
21197;DHT22;10756;51.014;3.786;2022-07-30T10:08:40;26.70;99.90
21197;DHT22;10756;51.014;3.786;2022-07-30T10:11:10;26.40;99.90
21197;DHT22;10756;51.014;3.786;2022-07-30T10:13:37;26.50;99.90
21197;DHT22;10756;51.014;3.786;2022-07-30T10:16:04;26.80;99.90
21197;DHT22;10756;51.014;3.786;2022-07-30T10:18:30;27.00;99.90
21197;DHT22;10756;51.014;3.786;2022-07-30T10:20:56;26.70;99.90
21197;DHT22;10756;51.014;3.786;2022-07-30T10:23:22;26.80;99.90
21197;DHT22;10756;51.014;3.786;2022-07-30T10:25:49;27.10;99.90
21197;DHT22;10756;51.014;3.786;2022-07-30T10:28:16;26.90;99.90
21197;DHT22;10756;51.014;3.786;2022-07-30T10:30:48;26.70;99.90
21197;DHT22;10756;51.014;3.786;2022-07-30T10:33:17;27.00;99.90
21197;DHT22;10756;51.014;3.786;2022-07-30T10:35:48;26.90;99.90
21197;DHT22;10756;51.014;3.786;2022-07-30T10:44:19;27.40;99.90
21197;DHT22;10756;51.014;3.786;2022-07-30T10:47:05;28.00;99.90
21197;DHT22;10756;51.014;3.786;2022-07-30T10:49:35;28.40;99.90
21197;DHT22;10756;51.014;3.786;2022-07-30T10:52:00;28.30;99.90
21197;DHT22;10756;51.014;3.786;2022-07-30T11:02:24;28.30;99.90
21197;DHT22;10756;51.014;3.786;2022-07-30T11:07:45;28.30;99.90
21197;DHT22;10756;51.014;3.786;2022-07-30T11:12:58;29.00;99.50
21197;DHT22;10756;51.014;3.786;2022-07-30T11:18:21;29.00;98.60
21197;DHT22;10756;51.014;3.786;2022-07-30T11:27:52;30.40;95.20
21197;DHT22;10756;51.014;3.786;2022-07-30T11:35:26;33.60;88.00
21197;DHT22;10756;51.014;3.786;2022-07-30T11:37:57;33.20;85.60
21197;DHT22;10756;51.014;3.786;2022-07-30T11:40:28;32.30;85.50
21197;DHT22;10756;51.014;3.786;2022-07-30T11:45:46;31.10;87.50
21197;DHT22;10756;51.014;3.786;2022-07-30T11:51:45;31.80;86.30
21197;DHT22;10756;51.014;3.786;2022-07-30T11:54:12;32.00;85.50
21197;DHT22;10756;51.014;3.786;2022-07-30T11:59:16;31.70;84.40
21197;DHT22;10756;51.014;3.786;2022-07-30T12:02:08;31.00;85.90
21197;DHT22;10756;51.014;3.786;2022-07-30T12:04:42;31.40;86.40
21197;DHT22;10756;51.014;3.786;2022-07-30T12:07:08;31.40;83.60
21197;DHT22;10756;51.014;3.786;2022-07-30T12:09:33;31.30;83.20
21197;DHT22;10756;51.014;3.786;2022-07-30T12:12:33;30.50;83.00
21197;DHT22;10756;51.014;3.786;2022-07-30T12:18:27;29.60;87.70
21197;DHT22;10756;51.014;3.786;2022-07-30T12:20:58;30.10;87.10
21197;DHT22;10756;51.014;3.786;2022-07-30T12:23:25;30.10;87.10
21197;DHT22;10756;51.014;3.786;2022-07-30T12:26:00;28.90;88.70
21197;DHT22;10756;51.014;3.786;2022-07-30T12:31:21;28.90;88.90
21197;DHT22;10756;51.014;3.786;2022-07-30T12:33:52;28.80;90.00
21197;DHT22;10756;51.014;3.786;2022-07-30T12:36:32;29.70;88.40
21197;DHT22;10756;51.014;3.786;2022-07-30T12:39:03;29.60;86.30
21197;DHT22;10756;51.014;3.786;2022-07-30T12:44:50;30.40;85.70
21197;DHT22;10756;51.014;3.786;2022-07-30T12:49:59;31.50;81.00
21197;DHT22;10756;51.014;3.786;2022-07-30T12:52:26;31.60;81.20
21197;DHT22;10756;51.014;3.786;2022-07-30T12:55:27;31.60;81.90
21197;DHT22;10756;51.014;3.786;2022-07-30T13:00:49;31.80;79.40
21197;DHT22;10756;51.014;3.786;2022-07-30T13:03:33;30.50;79.60
21197;DHT22;10756;51.014;3.786;2022-07-30T13:06:24;30.10;81.60
21197;DHT22;10756;51.014;3.786;2022-07-30T13:08:55;29.60;82.00
21197;DHT22;10756;51.014;3.786;2022-07-30T13:14:05;31.30;79.90
21197;DHT22;10756;51.014;3.786;2022-07-30T13:16:32;31.20;79.20
21197;DHT22;10756;51.014;3.786;2022-07-30T13:19:08;30.90;78.90
21197;DHT22;10756;51.014;3.786;2022-07-30T13:21:35;30.10;79.80
21197;DHT22;10756;51.014;3.786;2022-07-30T13:24:02;29.40;80.60
21197;DHT22;10756;51.014;3.786;2022-07-30T13:26:30;29.30;83.00
21197;DHT22;10756;51.014;3.786;2022-07-30T13:29:18;30.10;82.80
21197;DHT22;10756;51.014;3.786;2022-07-30T13:31:44;30.60;80.30
21197;DHT22;10756;51.014;3.786;2022-07-30T13:34:10;31.00;80.10
21197;DHT22;10756;51.014;3.786;2022-07-30T13:36:49;31.30;78.70
21197;DHT22;10756;51.014;3.786;2022-07-30T13:39:27;31.20;78.60
21197;DHT22;10756;51.014;3.786;2022-07-30T13:42:05;31.30;78.20
21197;DHT22;10756;51.014;3.786;2022-07-30T13:44:52;31.00;79.00
21197;DHT22;10756;51.014;3.786;2022-07-30T13:47:21;30.30;78.90
21197;DHT22;10756;51.014;3.786;2022-07-30T13:49:56;29.90;79.20
21197;DHT22;10756;51.014;3.786;2022-07-30T13:52:21;30.20;78.90
21197;DHT22;10756;51.014;3.786;2022-07-30T13:54:47;30.50;79.20
21197;DHT22;10756;51.014;3.786;2022-07-30T13:57:15;31.10;76.50
21197;DHT22;10756;51.014;3.786;2022-07-30T13:59:41;31.00;77.80
21197;DHT22;10756;51.014;3.786;2022-07-30T14:02:07;30.00;78.40
21197;DHT22;10756;51.014;3.786;2022-07-30T14:04:36;29.70;79.70
21197;DHT22;10756;51.014;3.786;2022-07-30T14:07:04;29.30;79.60
21197;DHT22;10756;51.014;3.786;2022-07-30T14:09:30;30.00;79.30
21197;DHT22;10756;51.014;3.786;2022-07-30T14:11:56;30.30;78.80
21197;DHT22;10756;51.014;3.786;2022-07-30T14:14:28;29.80;78.90
21197;DHT22;10756;51.014;3.786;2022-07-30T14:16:53;29.50;80.90
21197;DHT22;10756;51.014;3.786;2022-07-30T14:20:08;29.20;80.30
21197;DHT22;10756;51.014;3.786;2022-07-30T14:22:34;28.70;81.10
21197;DHT22;10756;51.014;3.786;2022-07-30T14:25:11;29.00;80.70
21197;DHT22;10756;51.014;3.786;2022-07-30T14:27:47;28.60;80.90
21197;DHT22;10756;51.014;3.786;2022-07-30T14:30:16;28.60;80.80
21197;DHT22;10756;51.014;3.786;2022-07-30T14:32:48;28.80;81.20
21197;DHT22;10756;51.014;3.786;2022-07-30T14:35:17;28.70;81.40
21197;DHT22;10756;51.014;3.786;2022-07-30T14:37:45;28.60;81.00
21197;DHT22;10756;51.014;3.786;2022-07-30T14:40:21;28.70;81.20
21197;DHT22;10756;51.014;3.786;2022-07-30T14:42:55;28.80;81.40
21197;DHT22;10756;51.014;3.786;2022-07-30T14:45:21;29.20;81.80
21197;DHT22;10756;51.014;3.786;2022-07-30T14:47:50;29.30;79.90
21197;DHT22;10756;51.014;3.786;2022-07-30T14:50:15;28.50;80.30
21197;DHT22;10756;51.014;3.786;2022-07-30T14:52:41;28.30;81.60
21197;DHT22;10756;51.014;3.786;2022-07-30T14:55:09;28.10;82.30
21197;DHT22;10756;51.014;3.786;2022-07-30T14:57:34;28.00;83.00
21197;DHT22;10756;51.014;3.786;2022-07-30T15:00:00;27.90;82.90
21197;DHT22;10756;51.014;3.786;2022-07-30T15:02:32;27.70;83.50
21197;DHT22;10756;51.014;3.786;2022-07-30T15:05:04;27.80;84.40
21197;DHT22;10756;51.014;3.786;2022-07-30T15:07:30;27.90;83.80
21197;DHT22;10756;51.014;3.786;2022-07-30T15:09:56;27.60;84.90
21197;DHT22;10756;51.014;3.786;2022-07-30T15:12:27;27.80;84.50
21197;DHT22;10756;51.014;3.786;2022-07-30T15:14:53;28.00;84.50
21197;DHT22;10756;51.014;3.786;2022-07-30T15:20:33;27.80;84.00
21197;DHT22;10756;51.014;3.786;2022-07-30T15:22:59;27.80;84.90
21197;DHT22;10756;51.014;3.786;2022-07-30T15:25:28;27.70;85.70
21197;DHT22;10756;51.014;3.786;2022-07-30T15:28:02;28.20;85.00
21197;DHT22;10756;51.014;3.786;2022-07-30T15:31:01;28.20;85.40
21197;DHT22;10756;51.014;3.786;2022-07-30T15:33:56;28.20;85.80
21197;DHT22;10756;51.014;3.786;2022-07-30T15:36:21;27.90;85.30
21197;DHT22;10756;51.014;3.786;2022-07-30T15:38:47;27.90;85.30
21197;DHT22;10756;51.014;3.786;2022-07-30T15:41:13;27.90;85.90
21197;DHT22;10756;51.014;3.786;2022-07-30T15:43:39;28.00;86.00
21197;DHT22;10756;51.014;3.786;2022-07-30T15:46:13;28.60;85.50
21197;DHT22;10756;51.014;3.786;2022-07-30T15:48:41;28.90;84.20
21197;DHT22;10756;51.014;3.786;2022-07-30T15:51:12;28.90;85.00
21197;DHT22;10756;51.014;3.786;2022-07-30T15:53:37;28.90;83.60
21197;DHT22;10756;51.014;3.786;2022-07-30T15:56:03;28.60;84.10
21197;DHT22;10756;51.014;3.786;2022-07-30T16:08:38;30.20;83.20
21197;DHT22;10756;51.014;3.786;2022-07-30T16:11:10;31.70;79.80
21197;DHT22;10756;51.014;3.786;2022-07-30T16:13:59;32.00;79.40
21197;DHT22;10756;51.014;3.786;2022-07-30T16:16:55;32.10;78.30
21197;DHT22;10756;51.014;3.786;2022-07-30T16:19:21;31.80;78.90
21197;DHT22;10756;51.014;3.786;2022-07-30T16:21:50;32.30;78.40
21197;DHT22;10756;51.014;3.786;2022-07-30T16:24:15;33.10;76.70
21197;DHT22;10756;51.014;3.786;2022-07-30T16:27:36;33.00;76.50
21197;DHT22;10756;51.014;3.786;2022-07-30T16:29:56;32.70;77.30
21197;DHT22;10756;51.014;3.786;2022-07-30T16:32:22;33.80;75.30
21197;DHT22;10756;51.014;3.786;2022-07-30T16:34:54;34.60;74.00
21197;DHT22;10756;51.014;3.786;2022-07-30T16:37:39;34.30;74.60
21197;DHT22;10756;51.014;3.786;2022-07-30T16:46:50;33.30;74.70
21197;DHT22;10756;51.014;3.786;2022-07-30T16:49:15;33.80;71.70
21197;DHT22;10756;51.014;3.786;2022-07-30T16:52:18;34.20;70.40
21197;DHT22;10756;51.014;3.786;2022-07-30T16:55:08;33.40;70.70
21197;DHT22;10756;51.014;3.786;2022-07-30T16:57:49;33.80;69.80
21197;DHT22;10756;51.014;3.786;2022-07-30T17:00:15;33.50;69.70
21197;DHT22;10756;51.014;3.786;2022-07-30T17:02:51;33.30;70.10
21197;DHT22;10756;51.014;3.786;2022-07-30T17:05:17;33.70;70.90
21197;DHT22;10756;51.014;3.786;2022-07-30T17:07:43;33.40;71.70
21197;DHT22;10756;51.014;3.786;2022-07-30T17:13:38;31.10;75.90
21197;DHT22;10756;51.014;3.786;2022-07-30T17:16:24;30.30;77.80